Time;durP1;ratioP1;P1;durP2;ratioP2;P2;SDS_P1;SDS_P2;PMS_P1;PMS_P2;Temp;Humidity;BMP_temperature;BMP_pressure;BME280_temperature;BME280_humidity;BME280_pressure;Samples;Min_cycle;Max_cycle;Signal;HPM_P1;HPM_P2
2023/07/11 00:00:51;;;;;;;1.17;0.85;;;;;;;30.58;37.69;101580.63;4988532;28;97458;-78
2023/07/11 00:03:18;;;;;;;1.27;0.80;;;;;;;30.58;37.82;101572.31;4990387;28;96998;-78
2023/07/11 00:05:59;;;;;;;1.52;0.75;;;;;;;30.60;37.57;101569.34;4988869;28;96951;-79
2023/07/11 00:08:26;;;;;;;2.10;1.10;;;;;;;30.58;38.08;101571.47;4975502;28;96942;-79
2023/07/11 00:10:52;;;;;;;1.38;0.98;;;;;;;30.58;38.05;101563.16;4991648;28;97370;-80
2023/07/11 00:13:19;;;;;;;1.00;0.80;;;;;;;30.58;37.87;101560.38;4990608;28;97162;-79
2023/07/11 00:16:08;;;;;;;1.10;0.80;;;;;;;30.59;37.97;101559.34;4974121;28;96879;-79
2023/07/11 00:18:35;;;;;;;1.92;1.17;;;;;;;30.56;37.66;101559.75;4972993;28;98751;-78
2023/07/11 00:21:04;;;;;;;1.15;0.80;;;;;;;30.56;38.02;101563.38;4987998;28;96782;-78
2023/07/11 00:23:31;;;;;;;1.63;0.90;;;;;;;30.56;37.94;101557.84;4991545;28;97825;-78
2023/07/11 00:25:58;;;;;;;1.85;0.95;;;;;;;30.56;37.95;101557.84;4992396;28;98200;-79
2023/07/11 00:28:25;;;;;;;1.17;0.70;;;;;;;30.56;37.72;101551.44;4987507;28;97978;-79
2023/07/11 00:30:53;;;;;;;1.00;0.70;;;;;;;30.57;37.79;101558.69;4972124;28;96693;-78
2023/07/11 00:33:20;;;;;;;1.65;1.10;;;;;;;30.56;37.78;101551.44;4969831;28;96734;-78
2023/07/11 00:35:50;;;;;;;1.85;1.05;;;;;;;30.57;38.01;101550.38;4968804;28;96925;-78
2023/07/11 00:38:17;;;;;;;1.40;0.82;;;;;;;30.56;37.94;101552.28;4988900;28;97034;-79
2023/07/11 00:40:47;;;;;;;1.80;1.00;;;;;;;30.55;37.85;101547.81;4989879;28;96649;-78
2023/07/11 00:43:16;;;;;;;2.30;0.90;;;;;;;30.55;37.81;101545.03;4981236;28;96841;-78
2023/07/11 00:46:04;;;;;;;1.42;0.90;;;;;;;30.58;37.91;101543.75;4982366;28;97136;-78
2023/07/11 00:48:35;;;;;;;1.33;1.02;;;;;;;30.54;38.04;101545.28;4978100;28;98188;-79
2023/07/11 00:51:05;;;;;;;1.23;0.93;;;;;;;30.55;37.82;101545.03;4970417;28;96679;-78
2023/07/11 00:53:32;;;;;;;1.58;0.90;;;;;;;30.54;37.72;101551.66;4989074;28;97938;-78
2023/07/11 00:56:04;;;;;;;1.38;0.88;;;;;;;30.55;37.88;101547.81;4970413;28;97881;-79
2023/07/11 00:58:32;;;;;;;1.00;0.75;;;;;;;30.55;37.76;101546.97;4988452;28;97664;-78
2023/07/11 01:01:00;;;;;;;1.23;0.80;;;;;;;30.54;37.96;101548.88;4982921;28;98723;-79
2023/07/11 01:03:27;;;;;;;1.70;1.00;;;;;;;30.54;37.73;101548.88;4987443;28;96872;-79
2023/07/11 01:05:57;;;;;;;1.75;0.80;;;;;;;30.55;38.23;101546.97;4987963;28;96650;-79
2023/07/11 01:08:24;;;;;;;1.38;0.85;;;;;;;30.54;38.02;101539.72;4985945;28;98538;-78
2023/07/11 01:10:51;;;;;;;1.52;0.82;;;;;;;30.54;37.88;101536.94;4988477;28;97606;-78
2023/07/11 01:13:17;;;;;;;1.20;0.80;;;;;;;30.54;37.93;101540.56;4972949;28;96786;-78
2023/07/11 01:15:44;;;;;;;1.95;1.08;;;;;;;30.54;38.06;101543.34;4972482;28;96688;-79
2023/07/11 01:18:11;;;;;;;1.42;1.00;;;;;;;30.53;37.77;101538.88;4969595;28;99699;-78
2023/07/11 01:20:37;;;;;;;2.70;0.98;;;;;;;30.52;37.80;101545.50;4985062;28;96880;-79
2023/07/11 01:23:04;;;;;;;1.10;0.60;;;;;;;30.55;37.73;101546.97;4972011;28;96711;-78
2023/07/11 01:25:32;;;;;;;1.30;0.73;;;;;;;30.53;37.96;101547.19;4972270;28;96652;-78
2023/07/11 01:27:58;;;;;;;1.52;0.90;;;;;;;30.53;37.66;101541.66;4974196;28;100707;-78
2023/07/11 01:30:25;;;;;;;2.30;1.10;;;;;;;30.53;37.90;101540.78;4956686;28;97634;-78
2023/07/11 01:32:52;;;;;;;1.38;0.80;;;;;;;30.54;37.94;101545.28;4980570;28;96728;-78
2023/07/11 01:35:19;;;;;;;0.98;0.80;;;;;;;30.53;37.94;101538.03;4982311;28;96947;-80
2023/07/11 01:37:45;;;;;;;1.13;0.80;;;;;;;30.53;37.79;101536.09;4988511;28;97186;-78
2023/07/11 01:40:12;;;;;;;1.38;0.77;;;;;;;30.53;37.65;101529.72;4989203;28;97089;-78
2023/07/11 01:42:40;;;;;;;1.20;0.98;;;;;;;30.52;37.97;101523.31;4988321;28;96682;-78
2023/07/11 01:45:09;;;;;;;1.10;0.90;;;;;;;30.52;37.64;101522.47;4989249;28;97269;-78
2023/07/11 01:47:36;;;;;;;1.38;0.95;;;;;;;30.52;37.98;101528.00;4976716;28;98560;-78
2023/07/11 01:50:03;;;;;;;1.40;0.90;;;;;;;30.52;37.92;101517.78;4990410;28;97377;-78
2023/07/11 01:52:29;;;;;;;1.48;0.88;;;;;;;30.51;37.83;101515.22;4979278;28;96860;-78
2023/07/11 01:54:57;;;;;;;1.10;0.88;;;;;;;30.52;37.97;101512.22;4982528;28;97174;-78
2023/07/11 01:57:23;;;;;;;1.10;0.90;;;;;;;30.53;37.92;101507.53;4987706;28;96884;-78
2023/07/11 01:59:51;;;;;;;1.55;0.80;;;;;;;30.51;37.73;101504.13;4986615;28;98344;-78
2023/07/11 02:02:17;;;;;;;0.77;0.70;;;;;;;30.51;37.67;101496.66;4976212;28;97858;-78
2023/07/11 02:04:44;;;;;;;1.10;0.80;;;;;;;30.52;37.78;101494.75;4985262;28;96642;-78
2023/07/11 02:07:11;;;;;;;1.13;0.90;;;;;;;30.51;37.95;101484.72;4984010;28;98526;-78
2023/07/11 02:09:37;;;;;;;0.95;0.73;;;;;;;30.52;38.23;101497.50;4987720;28;100019;-78
2023/07/11 02:12:04;;;;;;;0.93;0.80;;;;;;;30.51;37.84;101482.81;4969658;28;96710;-78
2023/07/11 02:14:31;;;;;;;1.85;0.90;;;;;;;30.50;37.64;101477.50;4970987;28;96932;-78
2023/07/11 02:16:58;;;;;;;1.90;1.02;;;;;;;30.50;37.84;101472.78;4987112;28;96897;-78
2023/07/11 02:19:25;;;;;;;1.33;1.05;;;;;;;30.51;37.95;101476.41;4989738;28;98354;-79
2023/07/11 02:21:52;;;;;;;1.27;0.70;;;;;;;30.50;37.92;101471.94;4992249;28;97274;-78
2023/07/11 02:24:19;;;;;;;0.88;0.70;;;;;;;30.50;37.69;101469.16;4990393;28;96729;-78
2023/07/11 02:26:47;;;;;;;1.20;0.88;;;;;;;30.50;37.91;101467.25;4990745;28;100149;-79
2023/07/11 02:29:14;;;;;;;0.98;0.70;;;;;;;30.50;37.79;101463.63;4990485;28;96741;-79
2023/07/11 02:31:41;;;;;;;2.00;1.10;;;;;;;30.50;38.08;101466.41;4987549;28;97341;-78
2023/07/11 02:34:09;;;;;;;1.10;0.85;;;;;;;30.50;37.84;101466.41;4981662;28;97373;-79
2023/07/11 02:36:35;;;;;;;1.33;0.88;;;;;;;30.49;37.90;101467.47;4987414;28;97597;-79
2023/07/11 02:39:02;;;;;;;1.00;0.80;;;;;;;30.48;37.82;101461.09;4987703;28;99334;-78
2023/07/11 02:41:29;;;;;;;1.00;0.60;;;;;;;30.49;37.75;101461.94;4987396;28;97076;-78
2023/07/11 02:43:57;;;;;;;1.25;0.80;;;;;;;30.49;38.07;101462.78;4971371;28;97249;-79
2023/07/11 02:46:24;;;;;;;1.48;0.80;;;;;;;30.48;37.80;101463.00;4984600;28;98083;-79
2023/07/11 02:48:51;;;;;;;1.98;0.80;;;;;;;30.48;37.93;101455.53;4989130;28;97334;-79
2023/07/11 02:51:17;;;;;;;1.17;0.80;;;;;;;30.49;37.93;101453.63;4969625;28;97592;-78
2023/07/11 02:53:44;;;;;;;1.50;1.02;;;;;;;30.48;37.79;101450.00;4970780;28;96889;-78
2023/07/11 02:56:11;;;;;;;0.98;0.65;;;;;;;30.47;37.69;101445.53;4989118;28;97492;-78
2023/07/11 02:58:37;;;;;;;1.15;0.93;;;;;;;30.48;38.10;101438.91;4984442;28;97430;-79
2023/07/11 03:01:04;;;;;;;1.10;0.90;;;;;;;30.47;37.93;101442.75;4969386;28;98443;-79
2023/07/11 03:03:31;;;;;;;1.00;0.80;;;;;;;30.47;37.80;101431.66;4983130;28;96864;-78
2023/07/11 03:05:58;;;;;;;0.90;0.77;;;;;;;30.47;37.74;101431.66;4978632;28;96859;-79
2023/07/11 03:08:25;;;;;;;1.08;0.85;;;;;;;30.48;37.90;101424.19;4965603;28;96860;-79
2023/07/11 03:10:52;;;;;;;1.30;0.80;;;;;;;30.48;37.68;101429.75;4954707;28;96650;-79
2023/07/11 03:13:18;;;;;;;1.30;0.80;;;;;;;30.47;37.75;101425.25;4988989;28;96857;-79
2023/07/11 03:15:45;;;;;;;1.52;0.75;;;;;;;30.47;37.86;101417.81;4990927;28;96836;-79
2023/07/11 03:18:13;;;;;;;0.90;0.73;;;;;;;30.47;37.82;101419.69;4992452;28;97814;-79
2023/07/11 03:20:41;;;;;;;1.48;0.82;;;;;;;30.46;37.71;101413.31;4993057;28;96854;-79
2023/07/11 03:23:10;;;;;;;1.17;0.88;;;;;;;30.46;37.59;101407.75;4983894;28;97388;-79
2023/07/11 03:25:36;;;;;;;0.82;0.77;;;;;;;30.45;37.65;101406.06;4972400;28;98762;-79
2023/07/11 03:28:03;;;;;;;2.05;0.90;;;;;;;30.45;37.85;101406.06;4973729;28;98563;-78
2023/07/11 03:30:31;;;;;;;1.02;0.80;;;;;;;30.45;37.64;101399.69;4989963;28;97092;-78
2023/07/11 03:32:57;;;;;;;1.10;0.90;;;;;;;30.45;37.75;101405.22;4988835;28;96918;-78
2023/07/11 03:35:24;;;;;;;1.70;0.88;;;;;;;30.45;37.78;101402.44;4984581;28;97599;-79
2023/07/11 03:37:51;;;;;;;1.80;1.00;;;;;;;30.43;37.77;101397.13;4988919;28;96715;-79
2023/07/11 03:40:17;;;;;;;1.30;0.90;;;;;;;30.45;37.60;101403.28;4973903;28;96967;-78
2023/07/11 03:42:44;;;;;;;0.80;0.70;;;;;;;30.45;37.83;101402.44;4972728;28;96961;-79
2023/07/11 03:45:11;;;;;;;1.42;0.80;;;;;;;30.45;37.82;101406.06;4990585;28;98602;-79
2023/07/11 03:48:02;;;;;;;1.05;0.70;;;;;;;30.42;37.71;101400.13;4988121;28;98689;-78
2023/07/11 03:50:29;;;;;;;1.80;0.88;;;;;;;30.42;37.68;101400.13;4989655;28;97117;-78
2023/07/11 03:52:55;;;;;;;0.70;0.68;;;;;;;30.42;37.66;101398.19;4986628;28;97144;-78
2023/07/11 03:55:22;;;;;;;1.00;0.80;;;;;;;30.42;37.66;101402.91;4989953;28;96878;-78
2023/07/11 03:57:49;;;;;;;1.10;0.85;;;;;;;30.42;37.86;101392.66;4973314;28;99346;-78
2023/07/11 04:00:15;;;;;;;1.20;0.70;;;;;;;30.41;37.62;101392.88;4973622;28;96795;-78
2023/07/11 04:02:42;;;;;;;0.77;0.65;;;;;;;30.43;37.83;101394.34;4989007;28;96843;-78
2023/07/11 04:05:09;;;;;;;0.98;0.80;;;;;;;30.43;37.75;101396.28;4972051;28;100814;-78
2023/07/11 04:07:35;;;;;;;1.25;0.80;;;;;;;30.42;37.88;101397.34;4973438;28;97433;-78
2023/07/11 04:10:02;;;;;;;1.20;0.80;;;;;;;30.42;37.75;101386.28;4985343;28;96677;-78
2023/07/11 04:12:29;;;;;;;1.23;0.82;;;;;;;30.42;37.88;101389.88;4976765;28;97524;-78
2023/07/11 04:14:55;;;;;;;1.00;0.80;;;;;;;30.41;37.82;101385.41;4988870;28;96812;-78
2023/07/11 04:17:22;;;;;;;1.30;0.90;;;;;;;30.42;37.60;101391.81;4991010;28;97862;-78
2023/07/11 04:19:49;;;;;;;1.63;1.00;;;;;;;30.42;37.67;101389.03;4978534;28;97068;-78
2023/07/11 04:22:16;;;;;;;0.90;0.77;;;;;;;30.41;37.77;101382.66;4975246;28;96741;-78
2023/07/11 04:24:43;;;;;;;0.95;0.73;;;;;;;30.41;37.76;101381.81;4974121;28;97967;-78
2023/07/11 04:27:09;;;;;;;1.15;0.80;;;;;;;30.42;37.78;101375.19;4970147;28;98424;-78
2023/07/11 04:29:36;;;;;;;0.80;0.80;;;;;;;30.42;37.70;101372.41;4989887;28;96970;-78
2023/07/11 04:32:04;;;;;;;1.30;0.80;;;;;;;30.42;37.83;101377.97;4989153;28;96627;-78
2023/07/11 04:34:31;;;;;;;0.98;0.73;;;;;;;30.42;37.93;101377.97;4984731;28;96943;-78
2023/07/11 04:36:57;;;;;;;0.85;0.70;;;;;;;30.41;37.93;101376.25;4989002;28;97374;-78
2023/07/11 04:39:24;;;;;;;1.20;0.70;;;;;;;30.41;37.68;101377.09;4988723;28;96808;-78
2023/07/11 04:41:51;;;;;;;1.30;1.00;;;;;;;30.41;37.94;101365.16;4972398;28;97263;-78
2023/07/11 04:44:17;;;;;;;1.35;0.80;;;;;;;30.41;37.89;101365.16;4977418;28;97953;-78
2023/07/11 04:46:44;;;;;;;1.27;0.95;;;;;;;30.41;37.88;101363.25;4992760;28;97992;-78
2023/07/11 04:49:11;;;;;;;1.15;0.70;;;;;;;30.40;37.63;101358.78;4990351;28;97192;-78
2023/07/11 04:51:37;;;;;;;0.85;0.70;;;;;;;30.42;37.62;101358.56;4971578;28;96597;-78
2023/07/11 04:54:04;;;;;;;1.13;0.80;;;;;;;30.41;37.66;101346.63;4988489;28;100910;-78
2023/07/11 04:56:30;;;;;;;0.90;0.70;;;;;;;30.42;37.50;101339.16;4988613;28;98309;-78
2023/07/11 04:58:59;;;;;;;1.00;0.70;;;;;;;30.42;37.75;101339.16;4973293;28;96818;-78
2023/07/11 05:01:25;;;;;;;1.15;0.77;;;;;;;30.42;37.88;101344.69;4973428;28;97419;-78
2023/07/11 05:03:52;;;;;;;1.58;0.80;;;;;;;30.41;37.73;101338.31;4990291;28;96830;-78
2023/07/11 05:06:19;;;;;;;1.50;0.90;;;;;;;30.42;37.71;101341.94;4991454;28;96832;-77
2023/07/11 05:08:45;;;;;;;1.00;0.80;;;;;;;30.41;37.59;101337.47;4976497;28;98035;-78
2023/07/11 05:11:16;;;;;;;0.90;0.60;;;;;;;30.42;37.51;101342.78;4992577;28;97134;-78
2023/07/11 05:13:45;;;;;;;0.82;0.70;;;;;;;30.41;37.98;101335.53;4971776;28;97035;-78
2023/07/11 05:16:14;;;;;;;1.38;0.80;;;;;;;30.42;37.58;101334.47;4967020;28;98637;-78
2023/07/11 05:18:42;;;;;;;1.75;0.77;;;;;;;30.41;37.62;101327.22;4984868;28;97295;-78
2023/07/11 05:21:13;;;;;;;1.40;0.60;;;;;;;30.41;37.75;101327.22;4989271;28;96920;-78
2023/07/11 05:23:40;;;;;;;1.23;0.65;;;;;;;30.42;37.92;101322.53;4979300;28;98439;-78
2023/07/11 05:26:07;;;;;;;1.30;0.80;;;;;;;30.41;37.40;101320.84;4988118;28;97784;-78
2023/07/11 05:28:34;;;;;;;1.35;0.80;;;;;;;30.42;37.71;101316.97;4984131;28;96772;-78
2023/07/11 05:31:03;;;;;;;1.15;0.80;;;;;;;30.42;37.56;101316.97;4986270;28;96843;-77
2023/07/11 05:33:30;;;;;;;1.02;0.77;;;;;;;30.42;37.64;101309.50;4964422;28;99906;-78
2023/07/11 05:38:54;;;;;;;1.02;0.63;;;;;;;30.41;37.60;101305.03;4988266;28;97075;-78
2023/07/11 05:41:21;;;;;;;1.65;0.85;;;;;;;30.41;37.74;101309.75;4987276;28;97536;-78
2023/07/11 05:43:47;;;;;;;1.20;0.90;;;;;;;30.41;37.70;101302.28;4983387;28;96971;-79
2023/07/11 05:46:14;;;;;;;0.75;0.60;;;;;;;30.42;37.64;101303.97;4983222;28;97046;-78
2023/07/11 05:48:41;;;;;;;1.02;0.80;;;;;;;30.42;37.54;101295.66;4972006;28;96761;-79
2023/07/11 05:51:10;;;;;;;1.33;1.00;;;;;;;30.42;37.58;101294.81;4967190;28;96619;-79
2023/07/11 05:53:37;;;;;;;1.00;0.70;;;;;;;30.42;37.89;101292.88;4980426;28;98059;-79
2023/07/11 05:56:04;;;;;;;2.22;0.90;;;;;;;30.43;37.89;101297.34;4990020;28;97608;-78
2023/07/11 05:58:32;;;;;;;0.90;0.77;;;;;;;30.43;37.65;101300.13;4987876;28;97286;-78
2023/07/11 06:01:00;;;;;;;0.90;0.70;;;;;;;30.44;37.46;101298.19;4969207;28;96876;-79
2023/07/11 06:03:29;;;;;;;1.27;0.90;;;;;;;30.43;37.49;101291.81;4966039;28;98743;-78
2023/07/11 06:06:05;;;;;;;0.93;0.70;;;;;;;30.45;37.42;101286.88;4966052;28;98799;-78
2023/07/11 06:08:32;;;;;;;1.25;0.80;;;;;;;30.46;37.69;101287.72;4978106;28;96705;-78
2023/07/11 06:11:01;;;;;;;1.17;0.90;;;;;;;30.46;37.44;101287.72;4981805;28;96732;-78
2023/07/11 06:13:30;;;;;;;1.23;0.88;;;;;;;30.45;37.77;101277.72;4979955;28;96870;-78
2023/07/11 06:16:16;;;;;;;1.20;0.90;;;;;;;30.46;37.83;101282.19;4988299;28;96945;-78
2023/07/11 06:18:46;;;;;;;1.25;0.65;;;;;;;30.45;38.02;101273.03;4988937;28;96984;-79
2023/07/11 06:21:13;;;;;;;1.20;0.80;;;;;;;30.45;37.63;101278.56;4988075;28;96885;-79
2023/07/11 06:23:39;;;;;;;1.15;0.70;;;;;;;30.46;37.82;101276.66;4983355;28;99764;-78
2023/07/11 06:26:08;;;;;;;1.40;0.90;;;;;;;30.47;37.72;101275.56;4964439;28;97462;-78
2023/07/11 06:28:36;;;;;;;1.08;0.70;;;;;;;30.47;37.57;101276.44;4985140;28;97427;-78
2023/07/11 06:31:05;;;;;;;1.73;0.70;;;;;;;30.47;37.76;101275.56;4982165;28;97037;-79
2023/07/11 06:33:34;;;;;;;1.45;0.77;;;;;;;30.46;37.82;101269.19;4969650;28;98172;-79
2023/07/11 06:36:03;;;;;;;1.17;0.98;;;;;;;30.48;37.78;101272.59;4985978;28;96870;-79
2023/07/11 06:38:30;;;;;;;1.42;0.80;;;;;;;30.47;37.54;101278.34;4965504;28;97492;-79
2023/07/11 06:40:57;;;;;;;1.75;0.90;;;;;;;30.47;37.46;101270.91;4976633;28;96921;-79
2023/07/11 06:43:25;;;;;;;1.10;0.68;;;;;;;30.49;37.67;101267.91;4965480;28;96748;-79
2023/07/11 06:45:57;;;;;;;1.33;0.80;;;;;;;30.48;37.57;101260.66;4967457;28;99607;-79
2023/07/11 06:48:27;;;;;;;0.88;0.70;;;;;;;30.48;37.42;101260.66;4972764;28;96905;-79
2023/07/11 06:50:56;;;;;;;1.35;0.80;;;;;;;30.49;37.67;101265.13;5003539;28;96778;-79
2023/07/11 06:53:25;;;;;;;0.90;0.80;;;;;;;30.49;37.81;101262.34;4990390;28;97813;-79
2023/07/11 06:55:52;;;;;;;1.00;0.70;;;;;;;30.48;37.80;101260.66;4983823;28;98069;-79
2023/07/11 06:58:20;;;;;;;1.20;0.93;;;;;;;30.49;37.70;101265.13;4992083;28;97453;-79
2023/07/11 07:00:55;;;;;;;1.02;0.80;;;;;;;30.49;37.89;101254.88;4982835;28;96692;-79
2023/07/11 07:03:23;;;;;;;1.30;0.85;;;;;;;30.50;37.72;101255.75;4989601;28;97221;-79
2023/07/11 07:05:52;;;;;;;0.80;0.73;;;;;;;30.49;37.59;101251.28;4989381;28;98640;-79
2023/07/11 07:08:20;;;;;;;1.48;1.05;;;;;;;30.50;37.79;101255.75;4974857;28;96901;-79
2023/07/11 07:10:48;;;;;;;1.15;0.82;;;;;;;30.49;37.56;101252.13;4978462;28;97148;-79
2023/07/11 07:13:17;;;;;;;1.35;0.82;;;;;;;30.50;37.46;101252.97;5000821;28;96962;-79
2023/07/11 07:15:56;;;;;;;1.63;0.90;;;;;;;30.51;37.35;101249.13;4985486;28;97072;-79
2023/07/11 07:18:23;;;;;;;1.25;0.80;;;;;;;30.50;37.45;101244.66;4971546;28;96734;-79
2023/07/11 07:20:51;;;;;;;0.98;0.70;;;;;;;30.49;37.63;101246.56;4973772;28;97555;-79
2023/07/11 07:23:28;;;;;;;1.55;0.98;;;;;;;30.49;37.56;101254.88;5002775;28;97082;-80
2023/07/11 07:25:58;;;;;;;1.35;0.70;;;;;;;30.50;37.74;101261.28;4986929;28;98868;-79
2023/07/11 07:28:27;;;;;;;2.33;0.95;;;;;;;30.50;37.51;101261.28;4981914;28;96841;-79
2023/07/11 07:30:55;;;;;;;1.00;0.88;;;;;;;30.51;37.39;101255.50;4989696;28;96951;-79
2023/07/11 07:33:24;;;;;;;1.10;0.70;;;;;;;30.51;37.40;101251.88;4982617;28;96737;-79
2023/07/11 07:35:59;;;;;;;1.80;1.10;;;;;;;30.51;37.64;101247.19;4971546;28;97069;-80
2023/07/11 07:38:27;;;;;;;2.05;0.95;;;;;;;30.50;37.70;101244.66;4975516;28;97787;-79
2023/07/11 07:40:57;;;;;;;1.33;0.90;;;;;;;30.51;37.39;101263.81;4980611;28;98584;-79
2023/07/11 07:43:25;;;;;;;1.98;0.93;;;;;;;30.51;37.46;101249.97;4983224;28;97883;-79
2023/07/11 07:45:53;;;;;;;0.95;0.75;;;;;;;30.52;37.38;101242.50;4973838;28;98632;-79
2023/07/11 07:48:20;;;;;;;1.48;1.00;;;;;;;30.50;37.35;101237.19;4999531;28;96949;-79
2023/07/11 07:50:47;;;;;;;1.58;0.70;;;;;;;30.52;37.38;101234.19;5005536;28;97019;-79
2023/07/11 07:53:15;;;;;;;1.13;0.82;;;;;;;30.53;37.38;101235.88;4979956;28;96989;-79
2023/07/11 07:55:43;;;;;;;1.60;1.10;;;;;;;30.52;37.57;101232.25;4988924;28;98854;-79
2023/07/11 07:58:10;;;;;;;1.65;1.10;;;;;;;30.52;37.12;101229.47;4994914;28;96707;-80
2023/07/11 08:00:37;;;;;;;2.00;1.30;;;;;;;30.53;37.35;101225.63;4977766;28;97242;-79
2023/07/11 08:03:04;;;;;;;2.10;1.00;;;;;;;30.53;37.37;101233.09;4977520;28;98009;-79
2023/07/11 08:05:31;;;;;;;1.52;1.13;;;;;;;30.53;37.62;101222.00;4977383;28;96870;-79
2023/07/11 08:07:59;;;;;;;1.40;1.15;;;;;;;30.54;37.39;101220.94;4995934;28;96978;-79
2023/07/11 08:10:26;;;;;;;1.58;0.90;;;;;;;30.54;37.27;101219.00;4980890;28;96625;-79
2023/07/11 08:12:53;;;;;;;2.55;1.10;;;;;;;30.54;37.51;101221.78;4976662;28;96838;-79
2023/07/11 08:15:19;;;;;;;1.63;0.98;;;;;;;30.54;37.48;101221.78;4996954;28;97899;-79
2023/07/11 08:17:46;;;;;;;1.70;1.10;;;;;;;30.55;37.21;101217.09;4980412;28;96980;-79
2023/07/11 08:20:13;;;;;;;2.13;1.23;;;;;;;30.55;37.45;101211.53;4998124;28;96770;-79
2023/07/11 08:22:39;;;;;;;1.67;1.00;;;;;;;30.54;37.49;101210.69;4981517;28;96640;-80
2023/07/11 08:25:06;;;;;;;1.42;0.90;;;;;;;30.54;37.40;101210.69;4979101;28;98484;-79
2023/07/11 08:27:33;;;;;;;2.10;0.98;;;;;;;30.55;37.08;101206.00;4996899;28;96693;-79
2023/07/11 08:29:59;;;;;;;1.00;0.80;;;;;;;30.55;37.26;101212.38;4993890;28;96573;-79
2023/07/11 08:32:26;;;;;;;2.15;1.20;;;;;;;30.54;37.45;101204.31;4993915;28;97056;-80
2023/07/11 08:34:53;;;;;;;1.20;1.02;;;;;;;30.56;37.39;101207.69;4985990;28;96740;-79
2023/07/11 08:37:20;;;;;;;1.70;1.15;;;;;;;30.56;37.25;101208.53;4990772;28;97446;-79
2023/07/11 08:39:47;;;;;;;2.08;1.20;;;;;;;30.56;37.37;101199.38;4977239;28;96863;-79
2023/07/11 08:42:26;;;;;;;1.63;1.10;;;;;;;30.56;37.38;101205.75;4960035;28;100047;-79
2023/07/11 08:45:03;;;;;;;1.48;1.15;;;;;;;30.57;37.15;101201.91;4982119;28;97232;-80
2023/07/11 08:47:37;;;;;;;2.08;0.98;;;;;;;30.56;37.17;101203.00;4976957;28;98478;-79
2023/07/11 08:50:17;;;;;;;1.58;1.10;;;;;;;30.58;37.14;101199.97;4980457;28;96863;-79
2023/07/11 08:52:48;;;;;;;2.08;1.10;;;;;;;30.55;37.38;101195.75;4967078;28;98794;-79
2023/07/11 08:55:25;;;;;;;2.08;1.17;;;;;;;30.56;37.38;101191.06;4979998;28;99297;-79
2023/07/11 08:58:06;;;;;;;1.38;1.02;;;;;;;30.56;37.37;101197.44;4987796;28;97097;-79
2023/07/11 09:00:33;;;;;;;2.00;1.20;;;;;;;30.55;36.95;101187.44;4967300;28;97202;-79
2023/07/11 09:03:11;;;;;;;1.85;1.08;;;;;;;30.57;37.17;101188.06;4975747;28;96865;-79
2023/07/11 09:05:49;;;;;;;2.88;1.40;;;;;;;30.58;37.22;101183.34;4986190;28;97483;-79
2023/07/11 09:08:17;;;;;;;1.38;1.10;;;;;;;30.57;37.32;101187.22;4986809;28;96856;-80
2023/07/11 09:10:59;;;;;;;1.17;1.08;;;;;;;30.58;37.22;101183.34;4979004;28;96862;-80
2023/07/11 09:14:04;;;;;;;1.75;0.98;;;;;;;30.59;37.14;101179.53;4967723;28;99035;-80
2023/07/11 09:16:34;;;;;;;1.58;0.98;;;;;;;30.54;37.15;101171.88;4978308;28;97541;-79
2023/07/11 09:19:15;;;;;;;1.48;1.02;;;;;;;30.57;37.31;101176.13;4980345;28;96700;-80
2023/07/11 09:21:57;;;;;;;1.38;0.90;;;;;;;30.58;37.21;101175.03;4965850;28;96559;-80
2023/07/11 09:24:46;;;;;;;2.13;1.13;;;;;;;30.57;37.05;101171.41;4972036;28;96835;-80
2023/07/11 09:27:23;;;;;;;2.15;1.02;;;;;;;30.56;37.11;101171.66;4982284;28;98040;-80
2023/07/11 09:29:51;;;;;;;2.47;1.25;;;;;;;30.56;37.31;101174.44;4987867;28;97395;-79
2023/07/11 09:32:18;;;;;;;1.95;1.20;;;;;;;30.58;37.11;101172.25;4987248;28;97153;-80
2023/07/11 09:34:48;;;;;;;2.28;1.05;;;;;;;30.58;37.13;101167.56;4954557;28;99499;-79
2023/07/11 09:37:38;;;;;;;1.20;1.08;;;;;;;30.58;37.18;101173.13;4977606;28;96701;-79
2023/07/11 09:40:14;;;;;;;1.55;1.00;;;;;;;30.58;37.20;101167.56;4991568;28;97256;-80
2023/07/11 09:42:49;;;;;;;1.20;1.00;;;;;;;30.59;36.99;101165.66;4990879;28;96915;-80
2023/07/11 09:45:23;;;;;;;3.08;1.40;;;;;;;30.59;37.25;101160.13;4991271;28;96704;-79
2023/07/11 09:48:08;;;;;;;1.83;1.15;;;;;;;30.59;37.14;101160.97;4974261;28;96819;-79
2023/07/11 09:50:56;;;;;;;1.83;1.25;;;;;;;30.59;36.98;101168.44;4992685;28;96679;-79
2023/07/11 09:53:44;;;;;;;1.40;1.00;;;;;;;30.58;37.10;101161.19;4990581;28;96795;-79
2023/07/11 09:56:14;;;;;;;1.70;1.23;;;;;;;30.58;37.14;101150.94;4990593;28;96954;-79
2023/07/11 09:58:47;;;;;;;1.27;1.00;;;;;;;30.60;37.02;101159.06;4985031;28;96824;-79
2023/07/11 10:01:26;;;;;;;1.38;0.95;;;;;;;30.59;37.32;101158.19;4991094;28;96737;-79
2023/07/11 10:03:55;;;;;;;2.53;1.20;;;;;;;30.60;37.24;101153.50;4993876;28;96769;-79
2023/07/11 10:06:28;;;;;;;2.85;1.23;;;;;;;30.60;37.12;101159.06;4990134;28;96926;-79
2023/07/11 10:09:25;;;;;;;1.55;1.05;;;;;;;30.60;37.04;101153.50;4994094;28;97234;-80
2023/07/11 10:11:58;;;;;;;1.42;1.10;;;;;;;30.60;37.03;101147.97;4990815;28;96679;-79
2023/07/11 10:14:30;;;;;;;1.42;1.05;;;;;;;30.60;37.01;101143.25;4975849;28;96729;-78
2023/07/11 10:16:58;;;;;;;1.63;1.13;;;;;;;30.61;36.86;101141.34;4975110;28;96777;-79
2023/07/11 10:19:26;;;;;;;1.65;1.08;;;;;;;30.62;37.09;101140.25;4975677;28;98017;-79
2023/07/11 10:21:58;;;;;;;1.40;1.00;;;;;;;30.63;37.19;101139.19;4959911;28;96524;-79
2023/07/11 10:24:26;;;;;;;1.70;1.13;;;;;;;30.60;37.12;101134.94;4990230;28;97226;-79
2023/07/11 10:27:03;;;;;;;1.58;1.02;;;;;;;30.63;37.07;101133.63;4982185;28;97524;-79
2023/07/11 10:29:39;;;;;;;1.80;1.10;;;;;;;30.62;37.03;101137.47;4984644;28;99316;-79
2023/07/11 10:32:13;;;;;;;1.85;1.20;;;;;;;30.61;36.95;101136.63;4977194;28;95962;-79
2023/07/11 10:34:49;;;;;;;1.15;0.80;;;;;;;30.61;36.96;101121.94;4975323;28;96700;-79
2023/07/11 10:37:27;;;;;;;1.00;0.90;;;;;;;30.62;36.92;101126.41;4977792;28;99180;-79
2023/07/11 10:40:04;;;;;;;1.60;0.90;;;;;;;30.62;37.08;101129.16;4960594;28;98017;-79
2023/07/11 10:42:50;;;;;;;1.63;1.10;;;;;;;30.63;37.07;101134.47;4978718;28;99229;-78
2023/07/11 10:45:23;;;;;;;1.60;1.10;;;;;;;30.62;36.84;101131.94;4981750;28;97250;-79
2023/07/11 10:48:06;;;;;;;1.75;1.30;;;;;;;30.62;36.86;101118.94;4980321;28;98170;-79
2023/07/11 10:50:49;;;;;;;1.92;1.15;;;;;;;30.63;36.84;101119.78;4961045;28;97752;-79
2023/07/11 10:53:31;;;;;;;1.73;1.40;;;;;;;30.62;37.13;101112.53;4976408;28;96895;-78
2023/07/11 10:56:06;;;;;;;1.60;1.30;;;;;;;30.61;37.14;101106.16;4962980;28;97512;-79
2023/07/11 10:58:34;;;;;;;2.47;1.00;;;;;;;30.60;37.29;101098.06;4962745;28;99325;-79
2023/07/11 11:01:07;;;;;;;1.65;1.17;;;;;;;30.62;36.96;101107.00;4979223;28;99233;-79
2023/07/11 11:03:46;;;;;;;1.50;1.15;;;;;;;30.63;37.18;101103.97;4992728;28;96802;-79
2023/07/11 11:06:42;;;;;;;1.10;0.90;;;;;;;30.62;37.02;101095.91;4983013;28;97722;-78
2023/07/11 11:09:35;;;;;;;1.52;1.10;;;;;;;30.63;37.11;101103.13;4985918;28;96817;-78
2023/07/11 11:12:17;;;;;;;1.77;1.08;;;;;;;30.61;37.04;101095.06;4978938;28;98109;-79
2023/07/11 11:15:19;;;;;;;1.70;1.08;;;;;;;30.64;37.05;101099.28;4990311;28;96767;-79
2023/07/11 11:18:12;;;;;;;1.48;1.00;;;;;;;30.62;37.15;101090.34;4989011;28;97298;-78
2023/07/11 11:20:57;;;;;;;2.17;1.02;;;;;;;30.63;37.09;101094.81;4936475;28;101030;-79
2023/07/11 11:23:58;;;;;;;3.67;1.20;;;;;;;30.62;37.24;101088.44;4988901;28;97370;-79
2023/07/11 11:26:43;;;;;;;1.65;1.00;;;;;;;30.63;37.05;101080.97;4989868;28;97102;-79
2023/07/11 11:29:22;;;;;;;;;;;;;;;30.59;36.98;101079.75;4990113;28;97435;-79
2023/07/11 11:32:09;;;;;;;1.35;0.90;;;;;;;30.60;37.12;101079.50;4981503;28;97478;-79
2023/07/11 11:34:57;;;;;;;1.17;0.88;;;;;;;30.62;37.32;101087.59;4994153;28;97010;-79
2023/07/11 11:38:04;;;;;;;1.75;1.10;;;;;;;30.61;37.23;101077.56;4992320;28;97298;-79
2023/07/11 11:40:37;;;;;;;2.13;1.10;;;;;;;30.62;37.28;101073.72;4993457;28;96934;-79
2023/07/11 11:43:13;;;;;;;1.33;1.15;;;;;;;30.63;37.33;101076.25;4980336;28;98208;-79